sensor_id;sensor_type;location;lat;lon;timestamp;temperature;humidity
15115;DHT22;7658;51.456;7.622;2024-01-06T00:01:48;5.90;99.90
15115;DHT22;7658;51.456;7.622;2024-01-06T00:04:13;5.80;99.90
15115;DHT22;7658;51.456;7.622;2024-01-06T00:06:39;5.90;99.90
15115;DHT22;7658;51.456;7.622;2024-01-06T00:09:05;5.80;99.90
15115;DHT22;7658;51.456;7.622;2024-01-06T00:11:31;5.80;99.90
15115;DHT22;7658;51.456;7.622;2024-01-06T00:13:56;5.80;99.90
15115;DHT22;7658;51.456;7.622;2024-01-06T00:16:22;5.80;99.90
15115;DHT22;7658;51.456;7.622;2024-01-06T00:18:48;5.80;99.90
15115;DHT22;7658;51.456;7.622;2024-01-06T00:21:14;5.80;99.90
15115;DHT22;7658;51.456;7.622;2024-01-06T00:23:40;5.80;99.90
15115;DHT22;7658;51.456;7.622;2024-01-06T00:26:06;5.80;99.90
15115;DHT22;7658;51.456;7.622;2024-01-06T00:28:32;5.80;99.90
15115;DHT22;7658;51.456;7.622;2024-01-06T00:30:58;5.80;99.90
15115;DHT22;7658;51.456;7.622;2024-01-06T00:33:23;5.80;99.90
15115;DHT22;7658;51.456;7.622;2024-01-06T00:35:49;5.80;99.90
15115;DHT22;7658;51.456;7.622;2024-01-06T00:38:15;5.90;99.90
15115;DHT22;7658;51.456;7.622;2024-01-06T00:40:41;5.90;99.90
15115;DHT22;7658;51.456;7.622;2024-01-06T00:43:07;5.80;99.90
15115;DHT22;7658;51.456;7.622;2024-01-06T00:45:32;5.80;99.90
15115;DHT22;7658;51.456;7.622;2024-01-06T00:47:58;5.90;99.90
15115;DHT22;7658;51.456;7.622;2024-01-06T00:50:24;5.90;99.90
15115;DHT22;7658;51.456;7.622;2024-01-06T00:52:50;5.90;99.90
15115;DHT22;7658;51.456;7.622;2024-01-06T00:55:21;5.90;99.90
15115;DHT22;7658;51.456;7.622;2024-01-06T00:57:47;5.90;99.90
15115;DHT22;7658;51.456;7.622;2024-01-06T01:00:14;5.90;99.90
15115;DHT22;7658;51.456;7.622;2024-01-06T01:02:39;5.90;99.90
15115;DHT22;7658;51.456;7.622;2024-01-06T01:05:05;5.90;99.90
15115;DHT22;7658;51.456;7.622;2024-01-06T01:07:33;5.90;99.90
15115;DHT22;7658;51.456;7.622;2024-01-06T01:09:59;5.90;99.90
15115;DHT22;7658;51.456;7.622;2024-01-06T01:12:24;5.90;99.90
15115;DHT22;7658;51.456;7.622;2024-01-06T01:14:51;5.90;99.90
15115;DHT22;7658;51.456;7.622;2024-01-06T01:17:17;5.90;99.90
15115;DHT22;7658;51.456;7.622;2024-01-06T01:19:43;5.80;99.90
15115;DHT22;7658;51.456;7.622;2024-01-06T01:22:09;5.80;99.90
15115;DHT22;7658;51.456;7.622;2024-01-06T01:24:35;5.80;99.90
15115;DHT22;7658;51.456;7.622;2024-01-06T01:27:01;5.80;99.90
15115;DHT22;7658;51.456;7.622;2024-01-06T01:29:27;5.80;99.90
15115;DHT22;7658;51.456;7.622;2024-01-06T01:31:53;5.80;99.90
15115;DHT22;7658;51.456;7.622;2024-01-06T01:34:18;5.80;99.90
15115;DHT22;7658;51.456;7.622;2024-01-06T01:36:44;5.80;99.90
15115;DHT22;7658;51.456;7.622;2024-01-06T01:39:10;5.80;99.90
15115;DHT22;7658;51.456;7.622;2024-01-06T01:41:36;5.80;99.90
15115;DHT22;7658;51.456;7.622;2024-01-06T01:44:02;5.80;99.90
15115;DHT22;7658;51.456;7.622;2024-01-06T01:46:29;5.80;99.90
15115;DHT22;7658;51.456;7.622;2024-01-06T01:48:56;5.80;99.90
15115;DHT22;7658;51.456;7.622;2024-01-06T01:51:24;5.80;99.90
15115;DHT22;7658;51.456;7.622;2024-01-06T01:53:52;5.80;99.90
15115;DHT22;7658;51.456;7.622;2024-01-06T01:56:19;5.70;99.90
15115;DHT22;7658;51.456;7.622;2024-01-06T01:58:45;5.80;99.90
15115;DHT22;7658;51.456;7.622;2024-01-06T02:01:11;5.70;99.90
15115;DHT22;7658;51.456;7.622;2024-01-06T02:03:38;5.70;99.90
15115;DHT22;7658;51.456;7.622;2024-01-06T02:06:06;5.70;99.90
15115;DHT22;7658;51.456;7.622;2024-01-06T02:08:32;5.70;99.90
15115;DHT22;7658;51.456;7.622;2024-01-06T02:10:57;5.70;99.90
15115;DHT22;7658;51.456;7.622;2024-01-06T02:13:23;5.70;99.90
15115;DHT22;7658;51.456;7.622;2024-01-06T02:15:49;5.70;99.90
15115;DHT22;7658;51.456;7.622;2024-01-06T02:18:15;5.70;99.90
15115;DHT22;7658;51.456;7.622;2024-01-06T02:20:44;5.70;99.90
15115;DHT22;7658;51.456;7.622;2024-01-06T02:23:11;5.80;99.90
15115;DHT22;7658;51.456;7.622;2024-01-06T02:25:37;5.80;99.90
15115;DHT22;7658;51.456;7.622;2024-01-06T02:28:03;5.80;99.90
15115;DHT22;7658;51.456;7.622;2024-01-06T02:30:29;5.80;99.90
15115;DHT22;7658;51.456;7.622;2024-01-06T02:32:55;5.80;99.90
15115;DHT22;7658;51.456;7.622;2024-01-06T02:35:21;5.80;99.90
15115;DHT22;7658;51.456;7.622;2024-01-06T02:37:46;5.80;99.90
15115;DHT22;7658;51.456;7.622;2024-01-06T02:40:13;5.70;99.90
15115;DHT22;7658;51.456;7.622;2024-01-06T02:42:39;5.70;99.90
15115;DHT22;7658;51.456;7.622;2024-01-06T02:45:06;5.80;99.90
15115;DHT22;7658;51.456;7.622;2024-01-06T02:47:32;5.80;99.90
15115;DHT22;7658;51.456;7.622;2024-01-06T02:49:57;5.80;99.90
15115;DHT22;7658;51.456;7.622;2024-01-06T02:52:23;5.80;99.90
15115;DHT22;7658;51.456;7.622;2024-01-06T02:54:49;5.70;99.90
15115;DHT22;7658;51.456;7.622;2024-01-06T02:57:15;5.80;99.90
15115;DHT22;7658;51.456;7.622;2024-01-06T02:59:40;5.80;99.90
15115;DHT22;7658;51.456;7.622;2024-01-06T03:02:07;5.70;99.90
15115;DHT22;7658;51.456;7.622;2024-01-06T03:04:32;5.70;99.90
15115;DHT22;7658;51.456;7.622;2024-01-06T03:06:58;5.70;99.90
15115;DHT22;7658;51.456;7.622;2024-01-06T03:09:24;5.70;99.90
15115;DHT22;7658;51.456;7.622;2024-01-06T03:11:50;5.70;99.90
15115;DHT22;7658;51.456;7.622;2024-01-06T03:14:15;5.70;99.90
15115;DHT22;7658;51.456;7.622;2024-01-06T03:16:41;5.70;99.90
15115;DHT22;7658;51.456;7.622;2024-01-06T03:19:07;5.60;99.90
15115;DHT22;7658;51.456;7.622;2024-01-06T03:21:32;5.60;99.90
15115;DHT22;7658;51.456;7.622;2024-01-06T03:23:58;5.50;99.90
15115;DHT22;7658;51.456;7.622;2024-01-06T03:26:24;5.50;99.90
15115;DHT22;7658;51.456;7.622;2024-01-06T03:28:50;5.40;99.90
15115;DHT22;7658;51.456;7.622;2024-01-06T03:31:16;5.40;99.90
15115;DHT22;7658;51.456;7.622;2024-01-06T03:33:43;5.50;99.90
15115;DHT22;7658;51.456;7.622;2024-01-06T03:36:09;5.40;99.90
15115;DHT22;7658;51.456;7.622;2024-01-06T03:38:35;5.40;99.90
15115;DHT22;7658;51.456;7.622;2024-01-06T03:41:01;5.30;99.90
15115;DHT22;7658;51.456;7.622;2024-01-06T03:43:26;5.30;99.90
15115;DHT22;7658;51.456;7.622;2024-01-06T03:45:52;5.30;99.90
15115;DHT22;7658;51.456;7.622;2024-01-06T03:48:18;5.30;99.90
15115;DHT22;7658;51.456;7.622;2024-01-06T03:50:44;5.30;99.90
15115;DHT22;7658;51.456;7.622;2024-01-06T03:53:10;5.40;99.90
15115;DHT22;7658;51.456;7.622;2024-01-06T03:55:36;5.40;99.90
15115;DHT22;7658;51.456;7.622;2024-01-06T03:58:01;5.40;99.90
15115;DHT22;7658;51.456;7.622;2024-01-06T04:00:27;5.40;99.90
15115;DHT22;7658;51.456;7.622;2024-01-06T04:02:54;5.40;99.90
15115;DHT22;7658;51.456;7.622;2024-01-06T04:05:20;5.40;99.90
15115;DHT22;7658;51.456;7.622;2024-01-06T04:07:46;5.40;99.90
15115;DHT22;7658;51.456;7.622;2024-01-06T04:10:12;5.40;99.90
15115;DHT22;7658;51.456;7.622;2024-01-06T04:12:37;5.50;99.90
15115;DHT22;7658;51.456;7.622;2024-01-06T04:15:03;5.50;99.90
15115;DHT22;7658;51.456;7.622;2024-01-06T04:17:30;5.50;99.90
15115;DHT22;7658;51.456;7.622;2024-01-06T04:19:55;5.60;99.90
15115;DHT22;7658;51.456;7.622;2024-01-06T04:22:22;5.60;99.90
15115;DHT22;7658;51.456;7.622;2024-01-06T04:24:48;5.60;99.90
15115;DHT22;7658;51.456;7.622;2024-01-06T04:27:13;5.70;99.90
15115;DHT22;7658;51.456;7.622;2024-01-06T04:29:39;5.70;99.90
15115;DHT22;7658;51.456;7.622;2024-01-06T04:32:05;5.60;99.90
15115;DHT22;7658;51.456;7.622;2024-01-06T04:34:33;5.60;99.90
15115;DHT22;7658;51.456;7.622;2024-01-06T04:36:58;5.50;99.90
15115;DHT22;7658;51.456;7.622;2024-01-06T04:39:24;5.50;99.90
15115;DHT22;7658;51.456;7.622;2024-01-06T04:41:50;5.50;99.90
15115;DHT22;7658;51.456;7.622;2024-01-06T04:44:16;5.40;99.90
15115;DHT22;7658;51.456;7.622;2024-01-06T04:46:41;5.50;99.90
15115;DHT22;7658;51.456;7.622;2024-01-06T04:49:07;5.40;99.90
15115;DHT22;7658;51.456;7.622;2024-01-06T04:51:33;5.40;99.90
15115;DHT22;7658;51.456;7.622;2024-01-06T04:53:59;5.40;99.90
15115;DHT22;7658;51.456;7.622;2024-01-06T04:56:24;5.30;99.90
15115;DHT22;7658;51.456;7.622;2024-01-06T04:58:50;5.30;99.90
15115;DHT22;7658;51.456;7.622;2024-01-06T05:01:16;5.30;99.90
15115;DHT22;7658;51.456;7.622;2024-01-06T05:03:42;5.20;99.90
15115;DHT22;7658;51.456;7.622;2024-01-06T05:06:07;5.20;99.90
15115;DHT22;7658;51.456;7.622;2024-01-06T05:08:33;5.20;99.90
15115;DHT22;7658;51.456;7.622;2024-01-06T05:10:59;5.20;99.90
15115;DHT22;7658;51.456;7.622;2024-01-06T05:13:25;5.20;99.90
15115;DHT22;7658;51.456;7.622;2024-01-06T05:15:51;5.20;99.90
15115;DHT22;7658;51.456;7.622;2024-01-06T05:18:17;5.20;99.90
15115;DHT22;7658;51.456;7.622;2024-01-06T05:20:43;5.20;99.90
15115;DHT22;7658;51.456;7.622;2024-01-06T05:23:09;5.10;99.90
15115;DHT22;7658;51.456;7.622;2024-01-06T05:25:34;5.10;99.90
15115;DHT22;7658;51.456;7.622;2024-01-06T05:28:00;5.10;99.90
15115;DHT22;7658;51.456;7.622;2024-01-06T05:30:26;5.10;99.90
15115;DHT22;7658;51.456;7.622;2024-01-06T05:32:52;5.10;99.90
15115;DHT22;7658;51.456;7.622;2024-01-06T05:35:17;5.10;99.90
15115;DHT22;7658;51.456;7.622;2024-01-06T05:37:43;5.10;99.90
15115;DHT22;7658;51.456;7.622;2024-01-06T05:40:09;5.00;99.90
15115;DHT22;7658;51.456;7.622;2024-01-06T05:42:35;5.10;99.90
15115;DHT22;7658;51.456;7.622;2024-01-06T05:45:01;5.00;99.90
15115;DHT22;7658;51.456;7.622;2024-01-06T05:47:26;5.00;99.90
15115;DHT22;7658;51.456;7.622;2024-01-06T05:49:52;4.90;99.90
15115;DHT22;7658;51.456;7.622;2024-01-06T05:52:18;4.90;99.90
15115;DHT22;7658;51.456;7.622;2024-01-06T05:54:43;5.00;99.90
15115;DHT22;7658;51.456;7.622;2024-01-06T05:57:09;5.00;99.90
15115;DHT22;7658;51.456;7.622;2024-01-06T05:59:35;5.00;99.90
15115;DHT22;7658;51.456;7.622;2024-01-06T06:02:01;4.90;99.90
15115;DHT22;7658;51.456;7.622;2024-01-06T06:04:27;5.00;99.90
15115;DHT22;7658;51.456;7.622;2024-01-06T06:06:53;5.00;99.90
15115;DHT22;7658;51.456;7.622;2024-01-06T06:09:19;5.00;99.90
15115;DHT22;7658;51.456;7.622;2024-01-06T06:11:46;5.00;99.90
15115;DHT22;7658;51.456;7.622;2024-01-06T06:14:12;5.00;99.90
15115;DHT22;7658;51.456;7.622;2024-01-06T06:16:38;5.00;99.90
15115;DHT22;7658;51.456;7.622;2024-01-06T06:19:04;5.00;99.90
15115;DHT22;7658;51.456;7.622;2024-01-06T06:21:30;5.00;99.90
15115;DHT22;7658;51.456;7.622;2024-01-06T06:23:56;5.00;99.90
15115;DHT22;7658;51.456;7.622;2024-01-06T06:26:21;4.90;99.90
15115;DHT22;7658;51.456;7.622;2024-01-06T06:28:47;4.90;99.90
15115;DHT22;7658;51.456;7.622;2024-01-06T06:31:13;4.80;99.90
15115;DHT22;7658;51.456;7.622;2024-01-06T06:33:39;4.80;99.90
15115;DHT22;7658;51.456;7.622;2024-01-06T06:36:05;4.90;99.90
15115;DHT22;7658;51.456;7.622;2024-01-06T06:38:31;4.80;99.90
15115;DHT22;7658;51.456;7.622;2024-01-06T06:40:57;4.80;99.90
15115;DHT22;7658;51.456;7.622;2024-01-06T06:43:23;4.80;99.90
15115;DHT22;7658;51.456;7.622;2024-01-06T06:45:49;4.80;99.90
15115;DHT22;7658;51.456;7.622;2024-01-06T06:48:14;4.80;99.90
15115;DHT22;7658;51.456;7.622;2024-01-06T06:50:40;4.70;99.90
15115;DHT22;7658;51.456;7.622;2024-01-06T06:53:07;4.60;99.90
15115;DHT22;7658;51.456;7.622;2024-01-06T06:55:33;4.60;99.90
15115;DHT22;7658;51.456;7.622;2024-01-06T06:57:59;4.60;99.90
15115;DHT22;7658;51.456;7.622;2024-01-06T07:00:24;4.70;99.90
15115;DHT22;7658;51.456;7.622;2024-01-06T07:02:50;4.70;99.90
15115;DHT22;7658;51.456;7.622;2024-01-06T07:05:16;4.70;99.90
15115;DHT22;7658;51.456;7.622;2024-01-06T07:07:42;4.70;99.90
15115;DHT22;7658;51.456;7.622;2024-01-06T07:10:12;4.70;99.90
15115;DHT22;7658;51.456;7.622;2024-01-06T07:12:38;4.70;99.90
15115;DHT22;7658;51.456;7.622;2024-01-06T07:15:04;4.70;99.90
15115;DHT22;7658;51.456;7.622;2024-01-06T07:17:30;4.70;99.90
15115;DHT22;7658;51.456;7.622;2024-01-06T07:19:56;4.70;99.90
15115;DHT22;7658;51.456;7.622;2024-01-06T07:22:22;4.70;99.90
15115;DHT22;7658;51.456;7.622;2024-01-06T07:24:48;4.80;99.90
15115;DHT22;7658;51.456;7.622;2024-01-06T07:27:14;4.80;99.90
15115;DHT22;7658;51.456;7.622;2024-01-06T07:29:40;4.80;99.90
15115;DHT22;7658;51.456;7.622;2024-01-06T07:32:06;4.80;99.90
15115;DHT22;7658;51.456;7.622;2024-01-06T07:34:32;4.80;99.90
15115;DHT22;7658;51.456;7.622;2024-01-06T07:36:58;4.80;99.90
15115;DHT22;7658;51.456;7.622;2024-01-06T07:39:24;4.80;99.90
15115;DHT22;7658;51.456;7.622;2024-01-06T07:41:50;4.70;99.90
15115;DHT22;7658;51.456;7.622;2024-01-06T07:44:16;4.70;99.90
15115;DHT22;7658;51.456;7.622;2024-01-06T07:46:48;4.60;99.90
15115;DHT22;7658;51.456;7.622;2024-01-06T07:49:14;4.60;99.90
15115;DHT22;7658;51.456;7.622;2024-01-06T07:51:41;4.60;99.90
15115;DHT22;7658;51.456;7.622;2024-01-06T07:54:07;4.60;99.90
15115;DHT22;7658;51.456;7.622;2024-01-06T07:56:34;4.60;99.90
15115;DHT22;7658;51.456;7.622;2024-01-06T07:59:01;4.60;99.90
15115;DHT22;7658;51.456;7.622;2024-01-06T08:01:27;4.60;99.90
15115;DHT22;7658;51.456;7.622;2024-01-06T08:03:52;4.60;99.90
15115;DHT22;7658;51.456;7.622;2024-01-06T08:06:18;4.60;99.90
15115;DHT22;7658;51.456;7.622;2024-01-06T08:08:44;4.60;99.90
15115;DHT22;7658;51.456;7.622;2024-01-06T08:11:11;4.50;99.90
15115;DHT22;7658;51.456;7.622;2024-01-06T08:13:37;4.50;99.90
15115;DHT22;7658;51.456;7.622;2024-01-06T08:16:04;4.50;99.90
15115;DHT22;7658;51.456;7.622;2024-01-06T08:18:30;4.40;99.90
15115;DHT22;7658;51.456;7.622;2024-01-06T08:20:56;4.40;99.90
15115;DHT22;7658;51.456;7.622;2024-01-06T08:23:21;4.40;99.90
15115;DHT22;7658;51.456;7.622;2024-01-06T08:25:48;4.40;99.90
15115;DHT22;7658;51.456;7.622;2024-01-06T08:28:14;4.40;99.90
15115;DHT22;7658;51.456;7.622;2024-01-06T08:30:44;4.40;99.90
15115;DHT22;7658;51.456;7.622;2024-01-06T08:33:10;4.40;99.90
15115;DHT22;7658;51.456;7.622;2024-01-06T08:35:35;4.40;99.90
15115;DHT22;7658;51.456;7.622;2024-01-06T08:38:06;4.40;99.90
15115;DHT22;7658;51.456;7.622;2024-01-06T08:40:33;4.40;99.90
15115;DHT22;7658;51.456;7.622;2024-01-06T08:42:59;4.40;99.90
15115;DHT22;7658;51.456;7.622;2024-01-06T08:45:24;4.40;99.90
15115;DHT22;7658;51.456;7.622;2024-01-06T08:47:50;4.40;99.90
15115;DHT22;7658;51.456;7.622;2024-01-06T08:50:16;4.40;99.90
15115;DHT22;7658;51.456;7.622;2024-01-06T08:52:41;4.40;99.90
15115;DHT22;7658;51.456;7.622;2024-01-06T08:55:08;4.40;99.90
15115;DHT22;7658;51.456;7.622;2024-01-06T08:57:33;4.40;99.90
15115;DHT22;7658;51.456;7.622;2024-01-06T08:59:59;4.40;99.90
15115;DHT22;7658;51.456;7.622;2024-01-06T09:02:25;4.40;99.90
15115;DHT22;7658;51.456;7.622;2024-01-06T09:04:50;4.40;99.90
15115;DHT22;7658;51.456;7.622;2024-01-06T09:07:16;4.30;99.90
15115;DHT22;7658;51.456;7.622;2024-01-06T09:09:43;4.30;99.90
15115;DHT22;7658;51.456;7.622;2024-01-06T09:12:09;4.30;99.90
15115;DHT22;7658;51.456;7.622;2024-01-06T09:14:35;4.30;99.90
15115;DHT22;7658;51.456;7.622;2024-01-06T09:17:01;4.30;99.90
15115;DHT22;7658;51.456;7.622;2024-01-06T09:19:26;4.20;99.90
15115;DHT22;7658;51.456;7.622;2024-01-06T09:21:54;4.20;99.90
15115;DHT22;7658;51.456;7.622;2024-01-06T09:24:20;4.20;99.90
15115;DHT22;7658;51.456;7.622;2024-01-06T09:26:46;4.20;99.90
15115;DHT22;7658;51.456;7.622;2024-01-06T09:29:12;4.20;99.90
15115;DHT22;7658;51.456;7.622;2024-01-06T09:31:38;4.20;99.90
15115;DHT22;7658;51.456;7.622;2024-01-06T09:34:04;4.10;99.90
15115;DHT22;7658;51.456;7.622;2024-01-06T09:36:32;4.10;99.90
15115;DHT22;7658;51.456;7.622;2024-01-06T09:38:58;4.00;99.90
15115;DHT22;7658;51.456;7.622;2024-01-06T09:41:24;4.10;99.90
15115;DHT22;7658;51.456;7.622;2024-01-06T09:43:50;4.10;99.90
15115;DHT22;7658;51.456;7.622;2024-01-06T09:46:26;4.10;99.90
15115;DHT22;7658;51.456;7.622;2024-01-06T09:48:53;4.10;99.90
15115;DHT22;7658;51.456;7.622;2024-01-06T09:51:19;4.10;99.90
15115;DHT22;7658;51.456;7.622;2024-01-06T09:54:00;4.00;99.90
15115;DHT22;7658;51.456;7.622;2024-01-06T09:56:27;3.90;99.90
15115;DHT22;7658;51.456;7.622;2024-01-06T09:58:54;4.00;99.90
15115;DHT22;7658;51.456;7.622;2024-01-06T10:01:20;4.00;99.90
15115;DHT22;7658;51.456;7.622;2024-01-06T10:03:46;4.00;99.90
15115;DHT22;7658;51.456;7.622;2024-01-06T10:06:13;4.00;99.90
15115;DHT22;7658;51.456;7.622;2024-01-06T10:08:41;3.90;99.90
15115;DHT22;7658;51.456;7.622;2024-01-06T10:11:07;3.90;99.90
15115;DHT22;7658;51.456;7.622;2024-01-06T10:13:36;4.00;99.90
15115;DHT22;7658;51.456;7.622;2024-01-06T10:16:06;4.00;99.90
15115;DHT22;7658;51.456;7.622;2024-01-06T10:18:32;4.00;99.90
15115;DHT22;7658;51.456;7.622;2024-01-06T10:21:00;4.10;99.90
15115;DHT22;7658;51.456;7.622;2024-01-06T10:23:28;4.00;99.90
15115;DHT22;7658;51.456;7.622;2024-01-06T10:25:55;4.00;99.90
15115;DHT22;7658;51.456;7.622;2024-01-06T10:28:22;4.00;99.90
15115;DHT22;7658;51.456;7.622;2024-01-06T10:30:54;3.90;99.90
15115;DHT22;7658;51.456;7.622;2024-01-06T10:33:21;3.90;99.90
15115;DHT22;7658;51.456;7.622;2024-01-06T10:35:52;3.80;99.90
15115;DHT22;7658;51.456;7.622;2024-01-06T10:38:18;3.80;99.90
15115;DHT22;7658;51.456;7.622;2024-01-06T10:40:59;3.80;99.90
15115;DHT22;7658;51.456;7.622;2024-01-06T10:43:26;3.90;99.90
15115;DHT22;7658;51.456;7.622;2024-01-06T10:45:59;3.80;99.90
15115;DHT22;7658;51.456;7.622;2024-01-06T10:48:25;3.80;99.90
15115;DHT22;7658;51.456;7.622;2024-01-06T10:50:52;3.90;99.90
15115;DHT22;7658;51.456;7.622;2024-01-06T10:53:20;3.90;99.90
15115;DHT22;7658;51.456;7.622;2024-01-06T10:55:46;3.90;99.90
15115;DHT22;7658;51.456;7.622;2024-01-06T10:58:14;3.90;99.90
15115;DHT22;7658;51.456;7.622;2024-01-06T11:00:42;3.90;99.90
15115;DHT22;7658;51.456;7.622;2024-01-06T11:03:09;3.90;99.90
15115;DHT22;7658;51.456;7.622;2024-01-06T11:05:36;4.00;99.90
15115;DHT22;7658;51.456;7.622;2024-01-06T11:08:04;4.00;99.90
15115;DHT22;7658;51.456;7.622;2024-01-06T11:10:30;4.00;99.90
15115;DHT22;7658;51.456;7.622;2024-01-06T11:13:13;3.90;99.90
15115;DHT22;7658;51.456;7.622;2024-01-06T11:15:49;3.90;99.90
15115;DHT22;7658;51.456;7.622;2024-01-06T11:18:34;3.90;99.90
15115;DHT22;7658;51.456;7.622;2024-01-06T11:21:16;3.80;99.90
15115;DHT22;7658;51.456;7.622;2024-01-06T11:24:18;3.80;99.90
15115;DHT22;7658;51.456;7.622;2024-01-06T11:26:56;3.80;99.90
15115;DHT22;7658;51.456;7.622;2024-01-06T11:29:22;3.70;99.90
15115;DHT22;7658;51.456;7.622;2024-01-06T11:32:23;3.70;99.90
15115;DHT22;7658;51.456;7.622;2024-01-06T11:34:54;3.70;99.90
15115;DHT22;7658;51.456;7.622;2024-01-06T11:37:34;3.70;99.90
15115;DHT22;7658;51.456;7.622;2024-01-06T11:40:02;3.70;99.90
15115;DHT22;7658;51.456;7.622;2024-01-06T11:42:34;3.70;99.90
15115;DHT22;7658;51.456;7.622;2024-01-06T11:45:07;3.70;99.90
15115;DHT22;7658;51.456;7.622;2024-01-06T11:47:34;3.60;99.90
15115;DHT22;7658;51.456;7.622;2024-01-06T11:50:01;3.60;99.90
15115;DHT22;7658;51.456;7.622;2024-01-06T11:52:33;3.60;99.90
15115;DHT22;7658;51.456;7.622;2024-01-06T11:55:00;3.60;99.90
15115;DHT22;7658;51.456;7.622;2024-01-06T11:57:26;3.60;99.90
15115;DHT22;7658;51.456;7.622;2024-01-06T11:59:52;3.60;99.90
15115;DHT22;7658;51.456;7.622;2024-01-06T12:02:19;3.70;99.90
15115;DHT22;7658;51.456;7.622;2024-01-06T12:04:52;3.60;99.90
15115;DHT22;7658;51.456;7.622;2024-01-06T12:07:19;3.60;99.90
15115;DHT22;7658;51.456;7.622;2024-01-06T12:09:46;3.60;99.90
15115;DHT22;7658;51.456;7.622;2024-01-06T12:12:18;3.50;99.90
15115;DHT22;7658;51.456;7.622;2024-01-06T12:14:44;3.50;99.90
15115;DHT22;7658;51.456;7.622;2024-01-06T12:17:12;3.50;99.90
15115;DHT22;7658;51.456;7.622;2024-01-06T12:19:40;3.50;99.90
15115;DHT22;7658;51.456;7.622;2024-01-06T12:22:12;3.50;99.90
15115;DHT22;7658;51.456;7.622;2024-01-06T12:24:42;3.50;99.90
15115;DHT22;7658;51.456;7.622;2024-01-06T12:27:11;3.50;99.90
15115;DHT22;7658;51.456;7.622;2024-01-06T12:29:43;3.50;99.90
15115;DHT22;7658;51.456;7.622;2024-01-06T12:32:10;3.50;99.90
15115;DHT22;7658;51.456;7.622;2024-01-06T12:34:36;3.50;99.90
15115;DHT22;7658;51.456;7.622;2024-01-06T12:37:02;3.50;99.90
15115;DHT22;7658;51.456;7.622;2024-01-06T12:39:29;3.50;99.90
15115;DHT22;7658;51.456;7.622;2024-01-06T12:41:55;3.50;99.90
15115;DHT22;7658;51.456;7.622;2024-01-06T12:44:21;3.50;99.90
15115;DHT22;7658;51.456;7.622;2024-01-06T12:46:49;3.50;99.90
15115;DHT22;7658;51.456;7.622;2024-01-06T12:49:14;3.40;99.90
15115;DHT22;7658;51.456;7.622;2024-01-06T12:51:40;3.40;99.90
15115;DHT22;7658;51.456;7.622;2024-01-06T12:54:06;3.40;99.90
15115;DHT22;7658;51.456;7.622;2024-01-06T12:56:32;3.50;99.90
15115;DHT22;7658;51.456;7.622;2024-01-06T12:58:58;3.50;99.90
15115;DHT22;7658;51.456;7.622;2024-01-06T13:01:23;3.40;99.90
15115;DHT22;7658;51.456;7.622;2024-01-06T13:03:49;3.40;99.90
15115;DHT22;7658;51.456;7.622;2024-01-06T13:06:15;3.40;99.90
15115;DHT22;7658;51.456;7.622;2024-01-06T13:08:42;3.50;99.90
15115;DHT22;7658;51.456;7.622;2024-01-06T13:11:08;3.50;99.90
15115;DHT22;7658;51.456;7.622;2024-01-06T13:13:34;3.50;99.90
15115;DHT22;7658;51.456;7.622;2024-01-06T13:16:00;3.50;99.90
15115;DHT22;7658;51.456;7.622;2024-01-06T13:18:29;3.50;99.90
15115;DHT22;7658;51.456;7.622;2024-01-06T13:20:55;3.40;99.90
15115;DHT22;7658;51.456;7.622;2024-01-06T13:23:21;3.40;99.90
15115;DHT22;7658;51.456;7.622;2024-01-06T13:25:46;3.40;99.90
15115;DHT22;7658;51.456;7.622;2024-01-06T13:28:12;3.40;99.90
15115;DHT22;7658;51.456;7.622;2024-01-06T13:30:38;3.40;99.90
15115;DHT22;7658;51.456;7.622;2024-01-06T13:33:07;3.30;99.90
15115;DHT22;7658;51.456;7.622;2024-01-06T13:35:34;3.30;99.90
15115;DHT22;7658;51.456;7.622;2024-01-06T13:38:02;3.30;99.90
15115;DHT22;7658;51.456;7.622;2024-01-06T13:40:30;3.30;99.90
15115;DHT22;7658;51.456;7.622;2024-01-06T13:42:56;3.30;99.90
15115;DHT22;7658;51.456;7.622;2024-01-06T13:45:22;3.30;99.90
15115;DHT22;7658;51.456;7.622;2024-01-06T13:47:47;3.30;99.90
15115;DHT22;7658;51.456;7.622;2024-01-06T13:50:17;3.30;99.90
15115;DHT22;7658;51.456;7.622;2024-01-06T13:52:43;3.20;99.90
15115;DHT22;7658;51.456;7.622;2024-01-06T13:55:11;3.20;99.90
15115;DHT22;7658;51.456;7.622;2024-01-06T13:57:37;3.20;99.90
15115;DHT22;7658;51.456;7.622;2024-01-06T14:00:10;3.20;99.90
15115;DHT22;7658;51.456;7.622;2024-01-06T14:02:37;3.20;99.90
15115;DHT22;7658;51.456;7.622;2024-01-06T14:05:04;3.10;99.90
15115;DHT22;7658;51.456;7.622;2024-01-06T14:07:30;3.10;99.90
15115;DHT22;7658;51.456;7.622;2024-01-06T14:09:56;3.10;99.90
15115;DHT22;7658;51.456;7.622;2024-01-06T14:12:22;3.10;99.90
15115;DHT22;7658;51.456;7.622;2024-01-06T14:14:48;3.20;99.90
15115;DHT22;7658;51.456;7.622;2024-01-06T14:17:14;3.20;99.90
15115;DHT22;7658;51.456;7.622;2024-01-06T14:19:39;3.10;99.90
15115;DHT22;7658;51.456;7.622;2024-01-06T14:22:05;3.10;99.90
15115;DHT22;7658;51.456;7.622;2024-01-06T14:24:31;3.10;99.90
15115;DHT22;7658;51.456;7.622;2024-01-06T14:26:57;3.10;99.90
15115;DHT22;7658;51.456;7.622;2024-01-06T14:29:23;3.10;99.90
15115;DHT22;7658;51.456;7.622;2024-01-06T14:31:49;3.20;99.90
15115;DHT22;7658;51.456;7.622;2024-01-06T14:34:15;3.10;99.90
15115;DHT22;7658;51.456;7.622;2024-01-06T14:36:41;3.10;99.90
15115;DHT22;7658;51.456;7.622;2024-01-06T14:39:18;3.10;99.90
15115;DHT22;7658;51.456;7.622;2024-01-06T14:41:48;3.00;99.90
15115;DHT22;7658;51.456;7.622;2024-01-06T14:44:14;3.00;99.90
15115;DHT22;7658;51.456;7.622;2024-01-06T14:46:40;3.00;99.90
15115;DHT22;7658;51.456;7.622;2024-01-06T14:49:07;3.00;99.90
15115;DHT22;7658;51.456;7.622;2024-01-06T14:51:33;3.00;99.90
15115;DHT22;7658;51.456;7.622;2024-01-06T14:53:59;3.00;99.90
15115;DHT22;7658;51.456;7.622;2024-01-06T14:56:25;3.00;99.90
15115;DHT22;7658;51.456;7.622;2024-01-06T14:58:51;3.00;99.90
15115;DHT22;7658;51.456;7.622;2024-01-06T15:01:17;3.00;99.90
15115;DHT22;7658;51.456;7.622;2024-01-06T15:03:43;3.00;99.90
15115;DHT22;7658;51.456;7.622;2024-01-06T15:06:09;3.10;99.90
15115;DHT22;7658;51.456;7.622;2024-01-06T15:08:35;3.00;99.90
15115;DHT22;7658;51.456;7.622;2024-01-06T15:11:01;2.90;99.90
15115;DHT22;7658;51.456;7.622;2024-01-06T15:13:28;2.90;99.90
15115;DHT22;7658;51.456;7.622;2024-01-06T15:15:54;2.90;99.90
15115;DHT22;7658;51.456;7.622;2024-01-06T15:18:20;2.90;99.90
15115;DHT22;7658;51.456;7.622;2024-01-06T15:20:46;2.80;99.90
15115;DHT22;7658;51.456;7.622;2024-01-06T15:23:12;2.80;99.90
15115;DHT22;7658;51.456;7.622;2024-01-06T15:25:38;2.80;99.90
15115;DHT22;7658;51.456;7.622;2024-01-06T15:28:04;2.70;99.90
15115;DHT22;7658;51.456;7.622;2024-01-06T15:30:30;2.80;99.90
15115;DHT22;7658;51.456;7.622;2024-01-06T15:32:55;2.70;99.90
15115;DHT22;7658;51.456;7.622;2024-01-06T15:35:21;2.70;99.90
15115;DHT22;7658;51.456;7.622;2024-01-06T15:37:47;2.70;99.90
15115;DHT22;7658;51.456;7.622;2024-01-06T15:40:13;2.70;99.90
15115;DHT22;7658;51.456;7.622;2024-01-06T15:42:39;2.70;99.90
15115;DHT22;7658;51.456;7.622;2024-01-06T15:45:06;2.80;99.90
15115;DHT22;7658;51.456;7.622;2024-01-06T15:47:32;2.70;99.90
15115;DHT22;7658;51.456;7.622;2024-01-06T15:49:59;2.70;99.90
15115;DHT22;7658;51.456;7.622;2024-01-06T15:52:25;2.70;99.90
15115;DHT22;7658;51.456;7.622;2024-01-06T15:54:50;2.70;99.90
15115;DHT22;7658;51.456;7.622;2024-01-06T15:57:17;2.70;99.90
15115;DHT22;7658;51.456;7.622;2024-01-06T15:59:43;2.70;99.90